createdAt,value
2023-03-27T00:03:13.752Z,6.18
2023-03-27T00:07:16.706Z,6.16
2023-03-27T00:11:18.412Z,6.13
2023-03-27T00:15:22.118Z,6.04
2023-03-27T00:19:25.202Z,6.02
2023-03-27T00:23:29.719Z,5.99
2023-03-27T00:27:31.884Z,5.90
2023-03-27T00:31:33.766Z,5.80
2023-03-27T00:35:35.419Z,5.65
2023-03-27T00:39:37.149Z,5.60
2023-03-27T00:43:44.165Z,5.42
2023-03-27T00:47:56.803Z,5.30
2023-03-27T00:52:00.768Z,5.16
2023-03-27T00:56:05.494Z,4.98
2023-03-27T01:00:13.824Z,5.00
2023-03-27T01:04:21.468Z,5.00
2023-03-27T01:08:25.453Z,5.02
2023-03-27T01:12:59.431Z,5.07
2023-03-27T01:17:25.952Z,5.07
2023-03-27T01:21:41.585Z,5.09
2023-03-27T01:26:07.351Z,5.02
2023-03-27T01:30:33.258Z,4.93
2023-03-27T01:35:01.884Z,4.87
2023-03-27T01:39:22.629Z,4.78
2023-03-27T01:43:33.644Z,4.68
2023-03-27T01:47:44.864Z,4.56
2023-03-27T01:51:58.377Z,4.43
2023-03-27T01:56:13.661Z,4.31
2023-03-27T02:00:19.608Z,4.11
2023-03-27T02:04:27.551Z,3.92
2023-03-27T02:08:38.950Z,3.80
2023-03-27T02:12:54.790Z,3.67
2023-03-27T02:17:02.327Z,3.53
2023-03-27T02:21:04.317Z,3.36
2023-03-27T02:25:29.881Z,3.45
2023-03-27T02:29:51.840Z,3.40
2023-03-27T02:34:15.133Z,3.24
2023-03-27T02:38:28.702Z,3.14
2023-03-27T02:43:03.962Z,3.04
2023-03-27T02:47:31.373Z,2.90
2023-03-27T02:51:53.237Z,2.73
2023-03-27T02:55:58.580Z,2.60
2023-03-27T03:00:07.578Z,2.56
2023-03-27T03:04:20.239Z,2.44
2023-03-27T03:08:39.005Z,2.27
2023-03-27T03:12:43.324Z,2.18
2023-03-27T03:16:45.942Z,2.12
2023-03-27T03:20:47.575Z,2.05
2023-03-27T03:24:51.329Z,2.05
2023-03-27T03:29:00.852Z,1.98
2023-03-27T03:33:04.834Z,1.91
2023-03-27T03:37:10.707Z,1.88
2023-03-27T03:41:12.535Z,1.79
2023-03-27T03:45:16.036Z,1.72
2023-03-27T03:49:18.756Z,1.74
2023-03-27T03:53:21.988Z,1.69
2023-03-27T03:57:23.682Z,1.67
2023-03-27T04:01:38.470Z,1.66
2023-03-27T04:05:42.714Z,1.66
2023-03-27T04:09:44.399Z,1.66
2023-03-27T04:14:00.136Z,1.60
2023-03-27T04:18:10.694Z,1.57
2023-03-27T04:22:17.364Z,1.53
2023-03-27T04:26:19.221Z,1.49
2023-03-27T04:30:44.281Z,1.42
2023-03-27T04:34:47.066Z,1.35
2023-03-27T04:39:16.785Z,1.26
2023-03-27T04:43:18.488Z,1.24
2023-03-27T04:47:21.561Z,1.23
2023-03-27T04:51:26.886Z,1.22
2023-03-27T04:55:30.642Z,1.14
2023-03-27T04:59:33.338Z,1.09
2023-03-27T05:03:53.768Z,1.05
2023-03-27T05:08:09.950Z,1.01
2023-03-27T05:12:12.081Z,1.01
2023-03-27T05:16:24.497Z,0.99
2023-03-27T05:20:29.932Z,0.97
2023-03-27T05:24:33.785Z,0.99
2023-03-27T05:28:36.802Z,0.99
2023-03-27T05:32:38.867Z,1.02
2023-03-27T05:36:51.310Z,1.06
2023-03-27T05:40:53.380Z,1.08
2023-03-27T05:44:57.048Z,1.10
2023-03-27T05:48:59.787Z,1.15
2023-03-27T05:53:09.061Z,1.24
2023-03-27T05:57:14.348Z,1.30
2023-03-27T06:01:18.999Z,1.34
2023-03-27T06:05:21.655Z,1.36
2023-03-27T06:09:26.459Z,1.45
2023-03-27T06:13:48.231Z,1.52
2023-03-27T06:17:54.037Z,1.58
2023-03-27T06:21:55.843Z,1.69
2023-03-27T06:25:58.997Z,1.77
2023-03-27T06:30:02.742Z,1.87
2023-03-27T06:34:05.405Z,2.00
2023-03-27T06:38:23.730Z,2.16
2023-03-27T06:42:26.625Z,2.22
2023-03-27T06:46:49.506Z,2.34
2023-03-27T06:50:57.008Z,2.50
2023-03-27T06:54:59.354Z,2.60
2023-03-27T06:59:01.470Z,2.77
2023-03-27T07:03:09.438Z,2.89
2023-03-27T07:07:32.044Z,3.06
2023-03-27T07:11:33.738Z,3.20
2023-03-27T07:15:42.751Z,3.32
2023-03-27T07:19:45.408Z,3.46
2023-03-27T07:23:48.824Z,3.61
2023-03-27T07:28:00.508Z,3.79
2023-03-27T07:32:07.185Z,3.91
2023-03-27T07:36:19.209Z,3.98
2023-03-27T07:40:38.757Z,4.07
2023-03-27T07:45:05.463Z,4.15
2023-03-27T07:49:11.310Z,4.27
2023-03-27T07:53:33.571Z,4.29
2023-03-27T07:58:00.878Z,4.58
2023-03-27T08:02:06.373Z,4.63
2023-03-27T08:06:13.055Z,4.69
2023-03-27T08:10:17.436Z,4.91
2023-03-27T08:14:31.168Z,5.00
2023-03-27T08:18:38.364Z,5.09
2023-03-27T08:22:42.510Z,5.33
2023-03-27T08:27:05.262Z,5.45
2023-03-27T08:31:14.541Z,5.65
2023-03-27T08:35:20.423Z,5.99
2023-03-27T08:39:24.115Z,6.39
2023-03-27T08:43:44.442Z,6.48
2023-03-27T08:47:58.769Z,6.72
2023-03-27T08:52:25.639Z,7.18
2023-03-27T08:56:29.367Z,7.21
2023-03-27T09:00:40.616Z,7.03
2023-03-27T09:05:09.833Z,6.94
2023-03-27T09:09:35.456Z,7.10
2023-03-27T09:13:48.906Z,7.04
2023-03-27T09:18:02.394Z,6.91
2023-03-27T09:22:13.860Z,6.84
2023-03-27T09:26:36.912Z,6.93
2023-03-27T09:30:41.740Z,6.97
2023-03-27T09:34:49.864Z,7.21
2023-03-27T09:39:02.239Z,7.41
2023-03-27T09:43:14.616Z,7.18
2023-03-27T09:47:53.547Z,7.71
2023-03-27T09:51:58.357Z,8.57
2023-03-27T09:56:19.203Z,8.53
2023-03-27T10:00:32.185Z,8.67
2023-03-27T10:04:34.402Z,8.72
2023-03-27T10:08:45.430Z,8.51
2023-03-27T10:12:58.433Z,8.34
2023-03-27T10:17:22.617Z,8.33
2023-03-27T10:21:39.240Z,8.59
2023-03-27T10:25:52.719Z,8.61
2023-03-27T10:30:00.645Z,8.83
2023-03-27T10:34:06.120Z,8.87
2023-03-27T10:38:33.203Z,8.61
2023-03-27T10:42:41.876Z,8.30
2023-03-27T10:46:47.203Z,8.15
2023-03-27T10:50:57.515Z,8.04
2023-03-27T10:55:51.773Z,7.73
2023-03-27T11:00:02.348Z,7.21
2023-03-27T11:04:42.310Z,7.25
2023-03-27T11:08:49.252Z,7.61
2023-03-27T11:13:17.129Z,7.49
2023-03-27T11:17:29.174Z,7.66
2023-03-27T11:21:58.311Z,7.96
2023-03-27T11:26:13.182Z,8.39
2023-03-27T11:30:37.072Z,8.30
2023-03-27T11:34:48.328Z,8.29
2023-03-27T11:39:15.711Z,8.51
2023-03-27T11:43:22.517Z,8.74
2023-03-27T11:47:39.906Z,8.81
2023-03-27T11:52:14.169Z,8.95
2023-03-27T11:56:30.700Z,9.78
2023-03-27T12:01:07.403Z,10.91
2023-03-27T12:05:20.354Z,10.83
2023-03-27T12:09:57.219Z,11.73
2023-03-27T12:14:44.126Z,10.92
2023-03-27T12:19:10.668Z,9.69
2023-03-27T12:23:37.913Z,9.13
2023-03-27T12:28:04.197Z,8.96
2023-03-27T12:32:57.172Z,8.92
2023-03-27T12:37:03.807Z,9.49
2023-03-27T12:41:19.662Z,10.94
2023-03-27T12:45:41.416Z,11.36
2023-03-27T12:50:00.902Z,11.93
2023-03-27T12:54:25.819Z,12.82
2023-03-27T12:58:34.514Z,13.67
2023-03-27T13:03:26.776Z,13.47
2023-03-27T13:07:49.180Z,11.97
2023-03-27T13:12:17.595Z,10.80
2023-03-27T13:16:25.611Z,10.17
2023-03-27T13:20:46.317Z,9.76
2023-03-27T13:24:58.710Z,9.82
2023-03-27T13:29:15.298Z,9.53
2023-03-27T13:33:37.917Z,10.08
2023-03-27T13:37:48.380Z,10.87
2023-03-27T13:41:57.038Z,10.88
2023-03-27T13:46:29.320Z,10.59
2023-03-27T13:50:53.484Z,10.60
2023-03-27T13:55:14.397Z,10.78
2023-03-27T14:00:10.522Z,12.28
2023-03-27T14:04:51.462Z,12.92
2023-03-27T14:09:17.291Z,12.27
2023-03-27T14:13:48.704Z,11.51
2023-03-27T14:18:18.642Z,10.87
2023-03-27T14:22:43.327Z,10.65
2023-03-27T14:26:46.242Z,10.48
2023-03-27T14:30:50.427Z,10.75
2023-03-27T14:35:05.051Z,11.14
2023-03-27T14:39:28.290Z,11.52
2023-03-27T14:43:38.257Z,11.16
2023-03-27T14:47:40.730Z,10.13
2023-03-27T14:51:43.322Z,9.17
2023-03-27T14:55:56.286Z,8.57
2023-03-27T15:00:24.300Z,7.57
2023-03-27T15:04:28.599Z,6.68
2023-03-27T15:08:39.863Z,6.97
2023-03-27T15:12:48.859Z,7.51
2023-03-27T15:17:03.057Z,7.88
2023-03-27T15:21:14.537Z,7.93
2023-03-27T15:25:24.373Z,7.81
2023-03-27T15:29:46.605Z,7.85
2023-03-27T15:34:03.610Z,7.78
2023-03-27T15:38:10.259Z,7.93
2023-03-27T15:42:15.094Z,7.94
2023-03-27T15:46:19.966Z,7.99
2023-03-27T15:50:24.138Z,8.12
2023-03-27T15:54:31.981Z,8.11
2023-03-27T15:58:44.007Z,8.14
2023-03-27T16:02:49.939Z,7.76
2023-03-27T16:06:54.822Z,7.71
2023-03-27T16:10:57.111Z,7.76
2023-03-27T16:15:00.445Z,7.80
2023-03-27T16:19:10.275Z,8.00
2023-03-27T16:23:12.082Z,7.79
2023-03-27T16:27:14.018Z,8.47
2023-03-27T16:31:18.105Z,8.34
2023-03-27T16:35:20.246Z,7.87
2023-03-27T16:39:22.072Z,7.40
2023-03-27T16:43:23.834Z,7.16
2023-03-27T16:47:25.674Z,6.97
2023-03-27T16:51:28.968Z,6.62
2023-03-27T16:55:30.765Z,6.48
2023-03-27T16:59:32.454Z,6.38
2023-03-27T17:03:35.237Z,6.26
2023-03-27T17:07:41.962Z,6.33
2023-03-27T17:11:43.801Z,6.34
2023-03-27T17:15:49.641Z,6.36
2023-03-27T17:19:51.427Z,6.36
2023-03-27T17:23:54.436Z,6.48
2023-03-27T17:27:56.116Z,6.54
2023-03-27T17:32:01.064Z,6.72
2023-03-27T17:36:08.798Z,6.89
2023-03-27T17:40:13.860Z,6.77
2023-03-27T17:44:15.566Z,6.25
2023-03-27T17:48:17.258Z,5.86
2023-03-27T17:52:20.249Z,5.47
2023-03-27T17:56:21.991Z,5.25
2023-03-27T18:00:25.690Z,5.15
2023-03-27T18:04:27.415Z,5.05
2023-03-27T18:08:29.135Z,4.96
2023-03-27T18:12:34.332Z,5.03
2023-03-27T18:16:36.259Z,5.04
2023-03-27T18:20:38.809Z,5.09
2023-03-27T18:24:40.853Z,5.10
2023-03-27T18:28:42.994Z,5.07
2023-03-27T18:32:46.062Z,4.95
2023-03-27T18:36:51.794Z,4.90
2023-03-27T18:40:55.802Z,4.78
2023-03-27T18:44:57.829Z,4.66
2023-03-27T18:49:03.299Z,4.54
2023-03-27T18:53:09.627Z,4.40
2023-03-27T18:57:12.789Z,4.28
2023-03-27T19:01:14.658Z,4.17
2023-03-27T19:05:18.199Z,4.05
2023-03-27T19:09:23.456Z,3.98
2023-03-27T19:13:33.311Z,3.86
2023-03-27T19:17:35.201Z,3.74
2023-03-27T19:21:51.835Z,3.64
2023-03-27T19:26:11.236Z,3.59
2023-03-27T19:30:16.489Z,3.57
2023-03-27T19:34:18.239Z,3.57
2023-03-27T19:38:19.971Z,3.64
2023-03-27T19:42:21.649Z,3.72
2023-03-27T19:46:25.215Z,3.80
2023-03-27T19:50:29.288Z,3.86
2023-03-27T19:54:48.079Z,3.93
2023-03-27T19:58:50.160Z,3.96
2023-03-27T20:02:53.136Z,4.01
2023-03-27T20:06:56.238Z,4.02
2023-03-27T20:10:58.253Z,4.05
2023-03-27T20:15:11.105Z,4.07
2023-03-27T20:19:19.394Z,4.07
2023-03-27T20:23:23.905Z,4.07
2023-03-27T20:27:28.496Z,4.00
2023-03-27T20:31:30.533Z,3.89
2023-03-27T20:35:33.628Z,3.75
2023-03-27T20:39:38.899Z,3.61
2023-03-27T20:43:44.949Z,3.46
2023-03-27T20:47:47.684Z,3.36
2023-03-27T20:51:54.421Z,3.29
2023-03-27T20:56:01.301Z,3.19
2023-03-27T21:00:07.942Z,3.10
2023-03-27T21:04:12.829Z,3.03
2023-03-27T21:08:15.606Z,3.00
2023-03-27T21:12:17.452Z,2.91
2023-03-27T21:16:19.217Z,2.87
2023-03-27T21:20:21.688Z,2.79
2023-03-27T21:24:24.177Z,2.70
2023-03-27T21:28:26.176Z,2.66
2023-03-27T21:32:28.616Z,2.60
2023-03-27T21:36:31.059Z,2.51
2023-03-27T21:40:33.094Z,2.42
2023-03-27T21:44:35.240Z,2.33
2023-03-27T21:48:37.334Z,2.23
2023-03-27T21:52:39.139Z,2.12
2023-03-27T21:56:41.387Z,2.04
2023-03-27T22:00:45.594Z,1.95
2023-03-27T22:04:47.385Z,1.86
2023-03-27T22:08:49.121Z,1.78
2023-03-27T22:12:51.178Z,1.75
2023-03-27T22:16:52.819Z,1.72
2023-03-27T22:20:54.524Z,1.68
2023-03-27T22:24:56.314Z,1.66
2023-03-27T22:28:58.345Z,1.64
2023-03-27T22:33:00.017Z,1.62
2023-03-27T22:37:01.887Z,1.58
2023-03-27T22:41:06.279Z,1.53
2023-03-27T22:45:08.450Z,1.51
2023-03-27T22:49:10.107Z,1.48
2023-03-27T22:53:11.749Z,1.46
2023-03-27T22:57:13.578Z,1.44
2023-03-27T23:01:15.638Z,1.38
2023-03-27T23:05:17.334Z,1.34
2023-03-27T23:09:19.326Z,1.31
2023-03-27T23:13:21.516Z,1.29
2023-03-27T23:17:23.378Z,1.26
2023-03-27T23:21:25.058Z,1.24
2023-03-27T23:25:27.030Z,1.21
2023-03-27T23:29:28.683Z,1.17
2023-03-27T23:33:36.239Z,1.14
2023-03-27T23:37:38.088Z,1.12
2023-03-27T23:41:39.818Z,1.06
2023-03-27T23:45:42.965Z,1.05
2023-03-27T23:49:44.746Z,1.02
2023-03-27T23:53:46.373Z,1.01
2023-03-27T23:57:48.003Z,0.99
